Time;durP1;ratioP1;P1;durP2;ratioP2;P2;SDS_P1;SDS_P2;PMS_P1;PMS_P2;Temp;Humidity;BMP_temperature;BMP_pressure;BME280_temperature;BME280_humidity;BME280_pressure;Samples;Min_cycle;Max_cycle;Signal;HPM_P1;HPM_P2
2021/10/29 00:02:01;;;;;;;4.50;3.30;;;;;;;22.71;41.53;95757.19;5345905;22;21027;-63
2021/10/29 00:04:26;;;;;;;4.60;3.20;;;;;;;22.67;41.66;95745.75;4984282;28;20137;-63
2021/10/29 00:06:55;;;;;;;4.78;3.45;;;;;;;22.67;41.58;95734.88;4986774;28;20469;-63
2021/10/29 00:09:20;;;;;;;4.22;2.83;;;;;;;22.68;41.56;95741.81;5002742;28;20054;-63
2021/10/29 00:11:46;;;;;;;4.28;3.03;;;;;;;22.65;41.43;95740.06;4987722;28;20035;-63
2021/10/29 00:14:11;;;;;;;4.07;3.03;;;;;;;22.66;41.56;95738.81;5019391;28;20554;-63
2021/10/29 00:16:36;;;;;;;3.85;2.80;;;;;;;22.63;41.37;95734.34;5019166;28;20023;-63
2021/10/29 00:19:02;;;;;;;3.85;2.63;;;;;;;22.62;41.38;95727.44;4987714;28;20026;-63
2021/10/29 00:21:29;;;;;;;5.00;2.95;;;;;;;22.62;41.39;95732.88;4987543;28;20512;-64
2021/10/29 00:23:56;;;;;;;4.25;2.92;;;;;;;22.62;41.81;95732.88;4986384;28;20076;-63
2021/10/29 00:26:22;;;;;;;4.72;2.80;;;;;;;22.58;41.77;95721.44;4987868;28;20057;-63
2021/10/29 00:28:47;;;;;;;4.53;2.90;;;;;;;22.59;41.39;95729.13;4987656;28;20038;-63
2021/10/29 00:31:13;;;;;;;3.58;2.75;;;;;;;22.56;41.52;95719.22;4987671;28;20351;-63
2021/10/29 00:33:38;;;;;;;4.13;3.03;;;;;;;22.58;41.41;95730.34;4986947;28;20819;-63
2021/10/29 00:36:04;;;;;;;4.50;3.00;;;;;;;22.56;41.54;95730.09;4986565;28;20037;-63
2021/10/29 00:38:29;;;;;;;4.20;2.95;;;;;;;22.57;41.71;95736.28;4987324;28;20030;-63
2021/10/29 00:40:55;;;;;;;3.72;2.80;;;;;;;22.55;41.67;95734.06;4987485;28;20560;-64
2021/10/29 00:43:20;;;;;;;4.97;3.03;;;;;;;22.55;41.65;95733.31;5002064;28;20019;-64
2021/10/29 00:45:47;;;;;;;5.10;2.85;;;;;;;22.51;41.62;95727.34;4987309;28;20030;-64
2021/10/29 00:48:13;;;;;;;4.10;2.83;;;;;;;22.51;41.69;95738.22;4987179;28;20026;-64
2021/10/29 00:50:39;;;;;;;4.13;2.97;;;;;;;22.52;41.70;95728.84;4987028;28;20100;-63
2021/10/29 00:53:05;;;;;;;3.85;3.05;;;;;;;22.49;41.73;95724.38;4986986;28;20040;-62
2021/10/29 00:55:31;;;;;;;3.97;2.90;;;;;;;22.49;41.82;95718.94;4987259;28;20532;-62
2021/10/29 00:57:56;;;;;;;4.32;2.95;;;;;;;22.49;41.82;95724.38;5001939;28;20084;-62
2021/10/29 01:00:23;;;;;;;4.40;3.00;;;;;;;22.48;41.84;95718.19;4987135;28;20034;-62
2021/10/29 01:02:48;;;;;;;3.88;2.83;;;;;;;22.46;41.61;95714.44;4993025;28;20045;-62
2021/10/29 01:05:14;;;;;;;4.75;3.50;;;;;;;22.45;41.69;95712.94;5006722;28;20069;-62
2021/10/29 01:07:39;;;;;;;3.67;3.00;;;;;;;22.44;41.64;95706.78;5006236;28;20049;-62
2021/10/29 01:10:05;;;;;;;4.60;3.17;;;;;;;22.44;41.77;95700.59;4988370;28;20022;-62
2021/10/29 01:12:31;;;;;;;3.85;2.92;;;;;;;22.43;41.64;95693.66;5006110;28;20026;-62
2021/10/29 01:14:58;;;;;;;4.47;2.90;;;;;;;22.43;41.91;95691.69;5006254;28;20022;-62
2021/10/29 01:17:23;;;;;;;4.32;2.97;;;;;;;22.43;41.64;95688.22;5006481;28;20022;-62
2021/10/29 01:19:53;;;;;;;4.13;3.30;;;;;;;22.42;41.87;95697.63;5006293;28;20026;-63
2021/10/29 01:22:19;;;;;;;2.97;2.42;;;;;;;22.41;41.78;95693.41;5006145;28;20029;-62
2021/10/29 01:24:44;;;;;;;4.43;2.97;;;;;;;22.41;41.67;95690.69;5006370;28;20033;-63
2021/10/29 01:27:11;;;;;;;4.07;2.92;;;;;;;22.41;41.88;95687.97;5006488;28;20030;-62
2021/10/29 01:29:38;;;;;;;4.22;3.00;;;;;;;22.40;41.57;95688.44;5005719;28;20124;-62
2021/10/29 01:32:03;;;;;;;4.50;3.20;;;;;;;22.39;41.83;95687.72;5005424;28;20034;-63
2021/10/29 01:34:29;;;;;;;4.63;3.45;;;;;;;22.37;42.04;95690.16;5004439;28;20045;-63
2021/10/29 01:36:55;;;;;;;4.05;3.08;;;;;;;22.37;41.78;95692.88;5005685;28;20068;-62
2021/10/29 01:39:20;;;;;;;4.32;3.20;;;;;;;22.34;41.95;95688.41;5005815;28;20494;-63
2021/10/29 01:41:45;;;;;;;3.63;2.67;;;;;;;22.35;42.13;95687.19;5005451;28;20037;-62
2021/10/29 01:44:13;;;;;;;4.40;3.17;;;;;;;22.35;41.79;95692.63;5005684;28;20029;-62
2021/10/29 01:46:38;;;;;;;4.43;2.97;;;;;;;22.34;42.02;95691.13;5005736;28;20507;-62
2021/10/29 01:49:04;;;;;;;3.75;2.97;;;;;;;22.33;41.69;95686.94;5005620;28;20057;-62
2021/10/29 01:51:30;;;;;;;4.50;2.92;;;;;;;22.34;41.90;95691.13;5004211;28;20037;-62
2021/10/29 01:53:55;;;;;;;4.93;3.00;;;;;;;22.33;42.14;95694.34;5005527;28;20044;-62
2021/10/29 01:56:20;;;;;;;4.43;2.83;;;;;;;22.30;41.82;95690.63;5006122;28;20036;-62
2021/10/29 01:58:46;;;;;;;3.33;2.90;;;;;;;22.31;41.70;95702.97;5004533;28;20038;-62
2021/10/29 02:01:12;;;;;;;4.13;3.08;;;;;;;22.31;41.91;95702.25;5005569;28;20029;-62
2021/10/29 02:03:37;;;;;;;4.93;3.22;;;;;;;22.30;41.78;95701.50;5005213;28;20050;-63
2021/10/29 02:06:03;;;;;;;4.30;3.25;;;;;;;22.30;41.87;95698.03;5005601;28;20037;-63
2021/10/29 02:08:29;;;;;;;4.07;2.83;;;;;;;22.29;41.81;95708.16;5005414;28;20045;-63
2021/10/29 02:10:54;;;;;;;4.30;3.22;;;;;;;22.30;41.80;95693.34;4987681;28;20116;-62
2021/10/29 02:13:20;;;;;;;4.38;3.20;;;;;;;22.29;41.97;95700.00;5003668;28;20192;-63
2021/10/29 02:15:47;;;;;;;4.50;3.35;;;;;;;22.28;41.72;95698.50;5005488;28;20026;-63
2021/10/29 02:18:12;;;;;;;3.72;3.10;;;;;;;22.27;41.74;95697.03;5005229;28;20030;-63
2021/10/29 02:20:38;;;;;;;4.28;3.00;;;;;;;22.28;41.85;95687.63;5003899;28;20025;-63
2021/10/29 02:23:03;;;;;;;3.67;3.00;;;;;;;22.26;41.93;95686.63;5005078;28;20033;-63
2021/10/29 02:25:29;;;;;;;3.78;3.05;;;;;;;22.25;41.85;95688.59;5005289;28;20018;-63
2021/10/29 02:27:55;;;;;;;4.30;3.50;;;;;;;22.26;41.63;95679.22;5004567;28;20206;-63
2021/10/29 02:30:20;;;;;;;3.78;3.03;;;;;;;22.23;42.04;95685.63;5005917;28;20084;-63
2021/10/29 02:32:46;;;;;;;4.88;3.10;;;;;;;22.22;42.14;95684.13;5004630;28;20260;-63
2021/10/29 02:35:11;;;;;;;4.07;3.17;;;;;;;22.23;41.86;95685.63;4987457;28;20038;-63
2021/10/29 02:37:37;;;;;;;4.40;3.05;;;;;;;22.23;42.06;95680.19;5005050;28;20026;-63
2021/10/29 02:40:03;;;;;;;4.18;3.00;;;;;;;22.21;42.05;95671.78;5003594;28;20064;-63
2021/10/29 02:42:29;;;;;;;4.38;3.00;;;;;;;22.21;42.02;95671.78;5004807;28;20886;-63
2021/10/29 02:44:54;;;;;;;4.40;3.05;;;;;;;22.21;41.93;95674.50;5004946;28;20026;-64
2021/10/29 02:47:20;;;;;;;4.50;3.15;;;;;;;22.21;41.92;95665.56;5006904;28;20559;-63
2021/10/29 02:49:45;;;;;;;4.70;3.20;;;;;;;22.18;41.81;95672.72;5008894;28;20022;-63
2021/10/29 02:52:11;;;;;;;4.15;3.13;;;;;;;22.19;41.87;95679.63;5007297;28;20459;-63
2021/10/29 02:54:37;;;;;;;4.88;3.38;;;;;;;22.18;41.83;95675.44;5008724;28;20137;-63
2021/10/29 02:57:03;;;;;;;5.20;3.38;;;;;;;22.17;41.86;95682.09;4991142;28;20142;-63
2021/10/29 02:59:28;;;;;;;3.72;2.85;;;;;;;22.18;41.88;95689.03;5009079;28;20018;-63
2021/10/29 03:01:54;;;;;;;4.50;3.13;;;;;;;22.18;41.92;95689.03;5008731;28;20087;-63
2021/10/29 03:04:20;;;;;;;3.78;2.90;;;;;;;22.18;41.86;95689.03;4987443;28;20046;-63
2021/10/29 03:06:45;;;;;;;4.35;3.03;;;;;;;22.17;42.00;95697.69;4989075;28;20109;-63
2021/10/29 03:09:10;;;;;;;4.40;3.10;;;;;;;22.15;42.05;95698.16;4987590;28;20480;-63
2021/10/29 03:11:36;;;;;;;4.78;2.95;;;;;;;22.15;42.02;95700.88;4988379;28;20022;-63
2021/10/29 03:14:01;;;;;;;4.45;3.00;;;;;;;22.14;41.83;95693.94;4988939;28;20115;-63
2021/10/29 03:16:27;;;;;;;4.25;2.83;;;;;;;22.13;41.98;95708.75;4989084;28;20073;-63
2021/10/29 03:18:52;;;;;;;3.72;3.05;;;;;;;22.14;41.94;95704.09;4988924;28;20038;-63
2021/10/29 03:21:18;;;;;;;5.05;3.35;;;;;;;22.14;41.90;95709.53;4988439;28;20018;-64
2021/10/29 03:23:43;;;;;;;5.05;3.53;;;;;;;22.14;41.93;95706.81;4987373;28;20496;-64
2021/10/29 03:26:10;;;;;;;4.13;3.40;;;;;;;22.14;41.93;95695.94;4988821;28;20464;-64
2021/10/29 03:28:35;;;;;;;5.47;3.33;;;;;;;22.11;42.21;95705.78;5002629;28;20038;-64
2021/10/29 03:31:01;;;;;;;5.22;3.15;;;;;;;22.17;42.20;95708.56;5027728;28;20014;-64
2021/10/29 03:33:26;;;;;;;5.53;3.60;;;;;;;22.17;42.09;95709.28;5011535;28;20103;-63
2021/10/29 03:35:52;;;;;;;5.50;3.30;;;;;;;22.23;42.06;95701.94;5043542;28;20496;-63
2021/10/29 03:41:04;;;;;;;5.05;3.50;;;;;;;22.33;41.65;95700.53;5020371;28;20038;-63
2021/10/29 03:43:33;;;;;;;4.30;3.10;;;;;;;22.40;41.81;95688.44;5017358;28;20040;-63
2021/10/29 03:46:02;;;;;;;4.45;3.40;;;;;;;22.47;41.37;95694.19;5021641;28;20029;-63
2021/10/29 03:51:29;;;;;;;4.75;3.60;;;;;;;22.66;41.40;95700.69;5018352;28;20154;-64
2021/10/29 03:53:48;;;;;;;4.85;3.20;;;;;;;22.77;40.74;95701.50;5012907;28;20033;-64
2021/10/29 03:56:22;;;;;;;4.07;3.10;;;;;;;22.88;40.55;95700.81;5018317;28;20025;-64
2021/10/29 03:58:50;;;;;;;5.28;3.20;;;;;;;22.98;40.72;95700.13;5020307;28;20509;-64
2021/10/29 04:01:16;;;;;;;4.15;3.28;;;;;;;23.08;40.36;95699.44;5022521;28;20703;-62
2021/10/29 04:03:42;;;;;;;4.70;3.60;;;;;;;23.17;40.20;95701.94;5023997;28;20076;-62
2021/10/29 04:06:08;;;;;;;4.38;3.30;;;;;;;23.33;39.68;95695.78;5023009;28;20053;-61
2021/10/29 04:08:34;;;;;;;3.92;3.10;;;;;;;23.45;39.69;95694.56;5015084;28;20137;-62
2021/10/29 04:10:59;;;;;;;4.47;3.10;;;;;;;23.54;39.58;95697.06;5052509;28;20010;-63
2021/10/29 04:13:28;;;;;;;4.28;3.08;;;;;;;23.66;39.43;95699.34;5016586;28;20057;-63
2021/10/29 04:15:53;;;;;;;5.32;3.63;;;;;;;23.79;38.76;95707.03;5022388;28;20515;-63
2021/10/29 04:18:18;;;;;;;4.18;3.45;;;;;;;23.86;38.72;95695.66;5015748;28;20048;-63
2021/10/29 04:20:44;;;;;;;5.50;3.60;;;;;;;23.93;38.71;95696.63;5023455;28;20577;-63
2021/10/29 04:23:09;;;;;;;4.35;3.10;;;;;;;23.98;38.40;95698.59;5018134;28;20060;-62
2021/10/29 04:25:35;;;;;;;3.75;3.00;;;;;;;24.11;38.70;95693.41;5025439;28;20079;-62
2021/10/29 04:28:05;;;;;;;4.63;3.15;;;;;;;24.17;38.25;95690.66;5014517;28;20029;-62
2021/10/29 04:30:31;;;;;;;4.40;3.03;;;;;;;24.32;37.75;95683.69;5012913;28;20053;-63
2021/10/29 04:32:57;;;;;;;4.43;3.53;;;;;;;24.39;37.87;95677.75;5015904;28;20034;-63
2021/10/29 04:35:23;;;;;;;4.97;3.55;;;;;;;24.43;37.58;95678.25;5020720;28;20032;-63
2021/10/29 04:37:48;;;;;;;4.80;3.55;;;;;;;24.48;37.84;95685.66;5019322;28;20053;-62
2021/10/29 04:40:14;;;;;;;4.25;3.30;;;;;;;24.55;37.70;95679.69;5018295;28;20022;-62
2021/10/29 04:42:40;;;;;;;4.32;3.10;;;;;;;24.62;37.12;95684.63;5014711;28;20399;-63
2021/10/29 04:45:06;;;;;;;4.68;3.40;;;;;;;24.60;37.40;95684.38;5051023;28;20044;-62
2021/10/29 04:47:32;;;;;;;4.55;3.38;;;;;;;24.72;37.30;95674.91;5018932;28;20058;-63
2021/10/29 04:49:58;;;;;;;5.03;3.58;;;;;;;24.80;37.11;95678.59;4979240;28;20060;-63
2021/10/29 04:52:23;;;;;;;5.95;3.40;;;;;;;24.81;36.87;95675.38;5016445;28;20048;-64
2021/10/29 04:54:49;;;;;;;3.65;3.00;;;;;;;24.80;36.98;95678.59;5036546;28;20562;-64
2021/10/29 04:57:15;;;;;;;4.30;3.22;;;;;;;24.89;36.81;95671.63;5038720;28;20513;-63
2021/10/29 04:59:40;;;;;;;4.22;3.15;;;;;;;25.01;36.63;95683.28;5032976;28;20024;-63
2021/10/29 05:02:06;;;;;;;4.32;3.15;;;;;;;25.03;36.72;95680.78;5043437;28;20091;-61
2021/10/29 05:04:31;;;;;;;4.32;3.25;;;;;;;25.04;36.43;95687.75;5050551;28;20051;-62
2021/10/29 05:06:57;;;;;;;4.45;3.50;;;;;;;25.16;36.40;95695.38;5050555;28;20352;-62
2021/10/29 05:09:22;;;;;;;4.63;3.03;;;;;;;25.21;36.48;95685.66;5050093;28;20040;-62
2021/10/29 05:11:48;;;;;;;4.75;3.63;;;;;;;25.24;36.65;95687.41;5049231;28;20411;-62
2021/10/29 05:14:13;;;;;;;4.55;3.50;;;;;;;25.27;36.53;95689.84;5046890;28;20527;-64
2021/10/29 05:16:39;;;;;;;3.88;3.10;;;;;;;25.29;36.38;95683.88;5041988;28;20026;-63
2021/10/29 05:19:05;;;;;;;3.83;2.80;;;;;;;25.34;36.61;95690.06;5049043;28;20079;-63
2021/10/29 05:21:31;;;;;;;21.60;14.23;;;;;;;25.40;36.24;95690.03;5057893;28;20028;-64
2021/10/29 05:23:56;;;;;;;18.17;10.93;;;;;;;25.40;36.53;95692.78;5049246;28;20075;-62
2021/10/29 05:26:22;;;;;;;25.55;16.63;;;;;;;25.49;36.37;95695.22;5058934;28;20028;-64
2021/10/29 05:28:48;;;;;;;24.77;16.05;;;;;;;25.52;36.60;95694.94;5054476;28;20110;-63
2021/10/29 05:31:13;;;;;;;26.02;17.77;;;;;;;25.56;36.21;95697.38;5060858;28;20040;-62
2021/10/29 05:33:39;;;;;;;24.35;17.58;;;;;;;25.54;36.58;95697.16;5045433;28;20032;-64
2021/10/29 05:36:04;;;;;;;25.65;16.33;;;;;;;25.70;35.84;95699.06;5043047;28;20041;-66
2021/10/29 05:38:30;;;;;;;23.35;15.63;;;;;;;25.64;35.86;95706.56;5038677;28;20414;-67
2021/10/29 05:40:58;;;;;;;22.73;15.50;;;;;;;25.60;35.96;95711.53;5044565;28;20028;-65
2021/10/29 05:43:23;;;;;;;22.67;15.23;;;;;;;25.63;36.01;95707.78;5038768;28;20024;-66
2021/10/29 05:45:49;;;;;;;22.67;14.60;;;;;;;25.67;36.05;95708.31;5043331;28;20029;-65
2021/10/29 05:48:14;;;;;;;20.98;13.82;;;;;;;25.72;36.19;95712.97;5041344;28;20027;-65
2021/10/29 05:50:47;;;;;;;19.98;13.70;;;;;;;25.72;35.95;95723.94;5048756;28;20392;-66
2021/10/29 05:53:19;;;;;;;21.40;14.07;;;;;;;25.77;35.61;95726.63;5040742;28;20704;-64
2021/10/29 05:55:45;;;;;;;19.90;13.07;;;;;;;25.75;36.04;95722.91;5031821;28;20033;-64
2021/10/29 05:58:10;;;;;;;19.35;13.40;;;;;;;25.75;35.70;95722.91;5037812;28;20029;-65
2021/10/29 06:00:36;;;;;;;17.20;12.27;;;;;;;25.77;35.96;95720.41;5050964;28;20017;-66
2021/10/29 06:03:05;;;;;;;18.35;12.75;;;;;;;25.79;35.74;95724.84;5041437;28;20147;-64
2021/10/29 06:05:32;;;;;;;19.00;12.95;;;;;;;25.80;35.87;95725.63;5050890;28;20037;-66
2021/10/29 06:07:57;;;;;;;18.55;12.10;;;;;;;25.79;35.82;95724.84;5043310;28;20036;-65
2021/10/29 06:10:24;;;;;;;18.02;12.32;;;;;;;25.82;35.54;95718.38;5055610;28;20032;-65
2021/10/29 06:12:49;;;;;;;17.63;12.23;;;;;;;25.86;35.72;95718.84;5043937;28;20643;-66
2021/10/29 06:15:16;;;;;;;17.15;12.30;;;;;;;25.92;35.40;95721.56;5054641;28;20017;-68
2021/10/29 06:17:42;;;;;;;16.88;11.20;;;;;;;25.92;35.62;95721.56;5043168;28;20530;-63
2021/10/29 06:20:08;;;;;;;15.93;11.20;;;;;;;25.99;35.46;95721.00;5039383;28;20048;-61
2021/10/29 06:22:37;;;;;;;14.30;11.02;;;;;;;25.91;35.50;95723.53;5038663;28;20561;-62
2021/10/29 06:25:19;;;;;;;16.67;11.07;;;;;;;25.91;35.54;95723.53;5049349;28;20129;-65
2021/10/29 06:30:29;;;;;;;16.27;10.70;;;;;;;25.93;35.59;95723.78;5050593;28;20566;-66
2021/10/29 06:32:57;;;;;;;15.70;11.18;;;;;;;25.92;35.47;95727.75;5024534;28;20041;-67
2021/10/29 06:35:23;;;;;;;15.10;10.77;;;;;;;25.99;35.28;95721.75;5044554;28;20029;-66
2021/10/29 06:37:48;;;;;;;16.55;10.52;;;;;;;26.03;35.31;95732.41;5037801;28;20049;-69
2021/10/29 06:40:16;;;;;;;15.38;10.25;;;;;;;26.00;35.45;95728.69;5043678;28;20021;-68
2021/10/29 06:42:47;;;;;;;13.60;10.13;;;;;;;26.19;35.33;95729.53;5039013;28;20032;-67
2021/10/29 06:47:49;;;;;;;14.50;10.05;;;;;;;26.32;35.08;95732.44;5016710;28;20036;-65
2021/10/29 07:01:16;;;;;;;14.40;9.32;;;;;;;26.18;35.32;95719.84;5059586;28;20031;-67
2021/10/29 07:04:18;;;;;;;12.15;8.55;;;;;;;26.14;35.41;95718.63;5042767;28;20064;-67
2021/10/29 07:41:52;;;;;;;9.68;7.07;;;;;;;25.11;36.92;95704.38;5025292;28;20639;-67
2021/10/29 07:44:26;;;;;;;9.65;7.50;;;;;;;25.07;36.95;95703.88;5037654;28;20033;-67
2021/10/29 07:46:52;;;;;;;11.23;7.53;;;;;;;25.03;37.26;95708.84;5039742;28;20649;-67
2021/10/29 07:49:18;;;;;;;10.13;7.03;;;;;;;24.96;37.02;95717.56;5034178;28;20243;-67
2021/10/29 07:51:43;;;;;;;9.18;6.80;;;;;;;24.92;37.38;95708.88;5040005;28;20036;-67
2021/10/29 07:54:10;;;;;;;9.75;7.22;;;;;;;24.86;37.54;95716.34;5019411;28;20466;-67
2021/10/29 07:56:35;;;;;;;9.73;7.18;;;;;;;24.83;37.12;95706.41;5042830;28;20036;-66
2021/10/29 07:59:02;;;;;;;10.40;7.57;;;;;;;24.80;37.42;95700.47;5038298;28;20029;-68
2021/10/29 08:01:27;;;;;;;10.90;6.85;;;;;;;24.77;37.70;95706.94;5041484;28;20457;-68
2021/10/29 08:03:53;;;;;;;10.70;7.10;;;;;;;24.74;37.93;95703.22;5046401;28;20130;-67
2021/10/29 08:06:18;;;;;;;11.15;7.00;;;;;;;24.73;37.70;95706.47;5045333;28;20052;-66
2021/10/29 08:08:45;;;;;;;9.55;6.97;;;;;;;24.68;37.89;95699.00;5028886;28;20040;-67
2021/10/29 08:11:11;;;;;;;9.50;7.20;;;;;;;24.65;37.60;95694.53;5046251;28;20035;-68
2021/10/29 08:13:36;;;;;;;11.10;7.43;;;;;;;24.65;37.78;95689.09;5028534;28;20021;-67
2021/10/29 08:16:04;;;;;;;11.25;6.90;;;;;;;24.62;38.13;95690.09;4996180;28;20625;-65
2021/10/29 08:18:31;;;;;;;10.15;7.03;;;;;;;24.58;38.12;95686.88;5046773;28;20079;-66
2021/10/29 08:20:56;;;;;;;9.00;6.38;;;;;;;24.61;37.58;95699.53;5046759;28;20058;-66
2021/10/29 08:23:22;;;;;;;8.80;6.18;;;;;;;24.57;38.01;95682.66;5046458;28;20032;-66
2021/10/29 08:25:47;;;;;;;9.15;6.80;;;;;;;24.53;37.73;95687.66;5028153;28;20534;-66
2021/10/29 08:28:13;;;;;;;9.15;6.60;;;;;;;24.53;38.06;95693.13;5045090;28;20424;-66
2021/10/29 08:30:38;;;;;;;8.07;6.40;;;;;;;24.49;38.05;95703.53;5031502;28;20419;-66
2021/10/29 08:33:04;;;;;;;9.18;6.20;;;;;;;24.47;37.70;95695.13;5026376;28;20044;-65
2021/10/29 08:35:29;;;;;;;9.05;6.40;;;;;;;24.49;38.38;95687.16;5026193;28;20030;-66
2021/10/29 08:37:55;;;;;;;8.50;6.13;;;;;;;24.43;38.32;95684.44;5025150;28;20033;-66
2021/10/29 08:40:21;;;;;;;8.88;6.07;;;;;;;24.41;38.24;95686.19;5026099;28;20033;-67
2021/10/29 08:42:48;;;;;;;7.85;6.28;;;;;;;24.38;38.10;95689.91;4991953;28;20025;-67
2021/10/29 08:45:13;;;;;;;9.35;6.60;;;;;;;24.38;37.87;95676.28;5025558;28;20061;-66
2021/10/29 08:47:43;;;;;;;8.10;6.13;;;;;;;24.36;38.33;95678.75;5024114;28;20036;-66
2021/10/29 08:50:12;;;;;;;7.47;5.82;;;;;;;24.35;38.49;95685.47;5026446;28;20186;-66
2021/10/29 08:52:39;;;;;;;8.95;5.55;;;;;;;24.36;37.99;95684.19;5008730;28;20037;-67
2021/10/29 08:55:07;;;;;;;9.10;6.15;;;;;;;24.36;38.25;95673.28;5025049;28;20068;-67
2021/10/29 08:57:33;;;;;;;8.25;6.53;;;;;;;24.34;38.39;95675.78;5026137;28;20036;-67
2021/10/29 08:59:59;;;;;;;9.60;5.80;;;;;;;24.32;38.63;95675.50;5025660;28;20037;-67
2021/10/29 09:02:33;;;;;;;9.32;6.07;;;;;;;24.36;38.27;95663.13;5017925;28;20044;-68
2021/10/29 09:05:20;;;;;;;8.57;5.60;;;;;;;24.36;38.53;95673.28;5030102;28;20087;-67
2021/10/29 09:08:01;;;;;;;8.23;5.80;;;;;;;24.36;38.39;95667.81;5037124;28;20060;-67
2021/10/29 09:16:45;;;;;;;8.25;5.60;;;;;;;24.40;38.48;95673.78;4880009;29;20769;-68
2021/10/29 09:33:07;;;;;;;8.95;5.60;;;;;;;25.07;37.42;95660.16;5022484;28;20060;-66
2021/10/29 09:35:35;;;;;;;6.97;5.03;;;;;;;25.18;37.26;95649.13;5018739;28;20036;-67
2021/10/29 09:38:09;;;;;;;7.95;5.60;;;;;;;25.32;36.86;95643.34;5034709;28;20040;-69
2021/10/29 09:40:36;;;;;;;7.72;5.35;;;;;;;25.44;36.72;95644.00;5028246;28;20067;-67
2021/10/29 09:43:12;;;;;;;6.70;4.93;;;;;;;25.59;36.55;95633.44;5033052;28;20027;-72
2021/10/29 09:45:39;;;;;;;7.55;5.15;;;;;;;25.69;36.42;95640.88;5008663;28;20035;-72
2021/10/29 09:48:18;;;;;;;8.77;5.70;;;;;;;25.76;36.46;95642.31;5041032;28;20036;-65
2021/10/29 09:50:52;;;;;;;7.13;5.28;;;;;;;25.90;36.13;95637.22;5029346;28;20029;-69
2021/10/29 09:58:47;;;;;;;;;;;;;;;26.26;36.08;95630.38;5034681;28;20534;-67
2021/10/29 10:01:13;;;;;;;8.13;5.00;;;;;;;26.31;36.38;95626.91;5024878;28;19948;-66
2021/10/29 10:03:39;;;;;;;8.80;5.25;;;;;;;26.41;36.22;95628.03;5014927;28;20169;-68
2021/10/29 10:06:04;;;;;;;6.38;4.95;;;;;;;26.51;36.19;95618.22;5017505;28;20079;-66
2021/10/29 10:08:31;;;;;;;6.90;5.00;;;;;;;26.61;36.21;95611.13;4994856;28;20038;-66
2021/10/29 10:10:58;;;;;;;6.20;4.88;;;;;;;26.70;35.98;95613.50;4972052;28;20030;-66
2021/10/29 10:13:23;;;;;;;8.10;5.70;;;;;;;26.76;35.71;95612.91;5007065;28;20057;-66
2021/10/29 10:15:52;;;;;;;7.00;4.65;;;;;;;26.85;35.82;95615.28;4988182;28;20074;-69
2021/10/29 10:18:21;;;;;;;6.40;4.70;;;;;;;26.89;35.52;95604.81;5003052;28;20085;-67
2021/10/29 10:20:48;;;;;;;9.27;5.00;;;;;;;26.99;35.52;95611.38;5009380;28;20033;-67
2021/10/29 10:23:15;;;;;;;7.40;5.22;;;;;;;27.06;35.35;95608.06;5021508;28;20017;-67
2021/10/29 10:40:09;;;;;;;8.23;5.05;;;;;;;27.16;35.46;95598.22;4994683;28;20121;-70
2021/10/29 10:42:50;;;;;;;7.82;4.90;;;;;;;27.38;35.35;95595.13;5005469;28;20025;-69
2021/10/29 10:45:32;;;;;;;7.70;4.88;;;;;;;27.27;35.40;95584.34;4987202;28;20033;-71
2021/10/29 10:48:01;;;;;;;6.35;4.10;;;;;;;27.30;35.42;95588.78;5006877;28;20120;-72
2021/10/29 10:50:30;;;;;;;8.02;4.45;;;;;;;27.37;35.28;95593.66;4981711;28;20131;-69
2021/10/29 10:53:23;;;;;;;5.93;4.20;;;;;;;27.42;34.83;95581.84;5013625;28;20091;-71
2021/10/29 11:07:06;;;;;;;5.80;4.20;;;;;;;27.60;34.62;95567.38;5032128;28;20033;-69
2021/10/29 11:10:10;;;;;;;7.35;5.03;;;;;;;27.56;35.12;95567.66;5026155;28;20563;-69
2021/10/29 11:12:42;;;;;;;7.07;4.22;;;;;;;27.49;34.91;95557.31;5035475;28;20494;-70
2021/10/29 11:15:16;;;;;;;5.82;4.13;;;;;;;27.46;35.19;95563.09;5029786;28;20038;-70
2021/10/29 11:18:11;;;;;;;5.72;4.32;;;;;;;27.41;35.38;95545.47;5034779;28;20032;-69
2021/10/29 11:20:47;;;;;;;6.40;4.50;;;;;;;27.24;35.24;95555.22;5000510;28;20503;-70
2021/10/29 11:23:25;;;;;;;5.30;3.92;;;;;;;27.19;35.49;95550.56;5029241;28;20041;-69
2021/10/29 11:28:37;;;;;;;6.10;4.25;;;;;;;27.01;35.59;95545.84;5029214;28;20128;-70
2021/10/29 11:31:13;;;;;;;7.13;4.18;;;;;;;26.99;35.81;95542.84;5029366;28;20147;-69
2021/10/29 11:33:43;;;;;;;5.75;3.97;;;;;;;26.81;35.78;95535.34;5025252;28;20111;-71
2021/10/29 11:36:14;;;;;;;6.63;4.20;;;;;;;26.78;36.12;95533.66;5024032;28;20035;-69
2021/10/29 11:38:40;;;;;;;6.20;4.53;;;;;;;26.74;36.28;95523.50;4991384;28;20586;-69
2021/10/29 11:41:13;;;;;;;6.32;4.03;;;;;;;26.69;36.27;95530.53;4994366;28;20833;-69
2021/10/29 11:43:39;;;;;;;5.63;4.40;;;;;;;26.61;36.87;95528.94;4969855;28;20138;-70
2021/10/29 11:46:06;;;;;;;7.95;4.75;;;;;;;26.58;36.69;95514.25;4988097;28;20014;-70
2021/10/29 11:48:34;;;;;;;6.07;4.00;;;;;;;26.52;36.71;95510.13;5004710;28;20030;-69
2021/10/29 11:51:11;;;;;;;6.45;3.97;;;;;;;26.47;36.71;95502.69;5004501;28;20536;-69
2021/10/29 11:53:47;;;;;;;6.07;4.30;;;;;;;26.41;36.70;95523.94;5004811;28;20120;-69
2021/10/29 11:56:25;;;;;;;6.13;4.05;;;;;;;26.39;36.53;95510.03;5021306;28;20500;-69
2021/10/29 12:09:36;;;;;;;6.20;4.38;;;;;;;26.18;37.40;95503.53;4995013;28;20511;-69
2021/10/29 12:12:08;;;;;;;5.90;4.22;;;;;;;26.17;37.44;95496.56;5009317;28;20026;-71
2021/10/29 12:14:35;;;;;;;5.68;3.88;;;;;;;26.13;37.68;95501.63;5018222;28;20415;-69
2021/10/29 12:17:12;;;;;;;5.65;4.10;;;;;;;26.14;37.73;95503.06;4991933;28;20538;-70
2021/10/29 12:19:39;;;;;;;6.00;4.30;;;;;;;26.12;37.62;95494.66;5009101;28;20111;-69
2021/10/29 12:22:12;;;;;;;4.50;3.65;;;;;;;26.07;37.58;95503.69;5023674;28;20030;-69
2021/10/29 12:24:44;;;;;;;6.53;4.30;;;;;;;26.09;37.39;95489.47;5008995;28;20089;-70
2021/10/29 12:27:19;;;;;;;5.63;3.67;;;;;;;26.10;37.45;95491.69;5008700;28;20542;-69
2021/10/29 12:30:07;;;;;;;5.32;3.60;;;;;;;26.08;37.67;95494.19;4990835;28;20037;-68
2021/10/29 12:32:42;;;;;;;6.00;3.53;;;;;;;26.10;37.50;95491.69;4999627;28;20053;-69
2021/10/29 13:03:39;;;;;;;5.60;3.60;;;;;;;26.27;37.54;95483.28;5005822;28;20152;-66
2021/10/29 13:06:06;;;;;;;8.68;3.97;;;;;;;26.29;37.60;95487.75;5006051;28;20033;-69
2021/10/29 13:08:31;;;;;;;5.70;2.92;;;;;;;26.27;37.74;95490.25;5006846;28;20052;-68
2021/10/29 13:10:58;;;;;;;7.07;3.58;;;;;;;26.35;37.39;95490.41;4991182;28;20042;-67
2021/10/29 13:13:31;;;;;;;3.67;2.85;;;;;;;26.38;37.25;95494.84;5005670;28;20786;-69
2021/10/29 13:16:03;;;;;;;3.92;2.97;;;;;;;26.41;36.54;95482.84;5006455;28;20503;-68
2021/10/29 13:18:40;;;;;;;4.20;3.08;;;;;;;26.47;36.68;95481.53;5008361;28;20029;-70
2021/10/29 13:26:42;;;;;;;4.57;2.85;;;;;;;26.72;36.13;95482.19;5006339;28;20053;-67
2021/10/29 13:28:58;;;;;;;5.65;3.13;;;;;;;26.67;36.12;95493.97;5006655;28;20125;-69
2021/10/29 13:58:27;;;;;;;3.33;2.40;;;;;;;26.93;34.38;95492.84;5011435;28;20578;-68
2021/10/29 14:16:20;;;;;;;3.50;2.40;;;;;;;26.85;34.83;95494.69;5015505;28;20096;-69
2021/10/29 14:28:45;;;;;;;3.88;2.25;;;;;;;26.41;34.52;95489.09;5010245;28;20098;-68
2021/10/29 14:31:25;;;;;;;4.43;2.40;;;;;;;26.40;34.36;95487.59;5006424;28;20084;-67
2021/10/29 14:34:00;;;;;;;4.15;2.58;;;;;;;26.42;34.67;95487.09;5008206;28;20463;-68
2021/10/29 14:36:31;;;;;;;4.65;2.75;;;;;;;26.39;34.24;95485.38;5007061;28;20030;-68
2021/10/29 14:39:09;;;;;;;4.07;2.22;;;;;;;26.44;34.31;95498.25;5010695;28;20030;-68
2021/10/29 14:41:40;;;;;;;4.00;2.70;;;;;;;26.46;34.05;95495.75;5006303;28;20018;-67
2021/10/29 14:44:12;;;;;;;3.53;2.40;;;;;;;26.55;34.06;95487.19;5009120;28;20040;-67
2021/10/29 14:49:22;;;;;;;6.50;2.60;;;;;;;26.55;34.36;95492.66;5011918;28;20021;-72
2021/10/29 15:18:26;;;;;;;2.97;2.45;;;;;;;26.93;33.86;95494.84;5037365;28;20028;-68
2021/10/29 15:26:40;;;;;;;4.38;2.40;;;;;;;26.97;33.93;95498.78;5007836;28;20042;-64
2021/10/29 15:29:18;;;;;;;4.22;2.25;;;;;;;27.09;34.07;95496.63;5028859;28;20405;-67
2021/10/29 15:45:51;;;;;;;5.22;2.00;;;;;;;26.85;33.59;95511.13;4983716;28;20031;-67
2021/10/29 15:48:23;;;;;;;3.00;1.92;;;;;;;26.89;33.87;95503.38;5024273;28;20039;-67
2021/10/29 15:50:48;;;;;;;3.75;2.33;;;;;;;26.86;33.96;95506.38;5035291;28;20055;-67
2021/10/29 15:53:14;;;;;;;4.38;2.45;;;;;;;26.82;33.73;95506.69;5032401;28;20025;-67